sensor_id;sensor_type;location;lat;lon;timestamp;P1;durP1;ratioP1;P2;durP2;ratioP2
13108;SDS011;6620;53.734;11.510;2022-09-20T00:00:42;0.68;;;0.20;;
13108;SDS011;6620;53.734;11.510;2022-09-20T00:03:08;1.55;;;0.20;;
13108;SDS011;6620;53.734;11.510;2022-09-20T00:05:34;1.50;;;0.22;;
13108;SDS011;6620;53.734;11.510;2022-09-20T00:08:00;2.28;;;0.25;;
13108;SDS011;6620;53.734;11.510;2022-09-20T00:10:25;1.02;;;0.32;;
13108;SDS011;6620;53.734;11.510;2022-09-20T00:12:51;0.10;;;0.10;;
13108;SDS011;6620;53.734;11.510;2022-09-20T00:15:16;1.25;;;0.20;;
13108;SDS011;6620;53.734;11.510;2022-09-20T00:17:41;1.50;;;0.10;;
13108;SDS011;6620;53.734;11.510;2022-09-20T00:20:07;1.40;;;0.20;;
13108;SDS011;6620;53.734;11.510;2022-09-20T00:22:32;0.22;;;0.10;;
13108;SDS011;6620;53.734;11.510;2022-09-20T00:24:57;2.07;;;0.10;;
13108;SDS011;6620;53.734;11.510;2022-09-20T00:27:22;0.83;;;0.10;;
13108;SDS011;6620;53.734;11.510;2022-09-20T00:29:48;1.10;;;0.30;;
13108;SDS011;6620;53.734;11.510;2022-09-20T00:32:13;4.23;;;0.10;;
13108;SDS011;6620;53.734;11.510;2022-09-20T00:34:38;0.83;;;0.10;;
13108;SDS011;6620;53.734;11.510;2022-09-20T00:37:22;1.27;;;0.10;;
13108;SDS011;6620;53.734;11.510;2022-09-20T00:39:47;0.20;;;0.10;;
13108;SDS011;6620;53.734;11.510;2022-09-20T00:42:13;0.20;;;0.10;;
13108;SDS011;6620;53.734;11.510;2022-09-20T00:47:28;0.85;;;0.20;;
13108;SDS011;6620;53.734;11.510;2022-09-20T00:52:46;0.32;;;0.17;;
13108;SDS011;6620;53.734;11.510;2022-09-20T00:55:13;2.10;;;0.10;;
13108;SDS011;6620;53.734;11.510;2022-09-20T00:57:39;2.85;;;0.28;;
13108;SDS011;6620;53.734;11.510;2022-09-20T01:00:06;0.20;;;0.20;;
13108;SDS011;6620;53.734;11.510;2022-09-20T01:02:32;0.80;;;0.20;;
13108;SDS011;6620;53.734;11.510;2022-09-20T01:04:58;0.47;;;0.10;;
13108;SDS011;6620;53.734;11.510;2022-09-20T01:07:23;1.80;;;0.10;;
13108;SDS011;6620;53.734;11.510;2022-09-20T01:09:50;1.35;;;0.10;;
13108;SDS011;6620;53.734;11.510;2022-09-20T01:12:17;0.50;;;0.10;;
13108;SDS011;6620;53.734;11.510;2022-09-20T01:14:43;4.93;;;1.42;;
13108;SDS011;6620;53.734;11.510;2022-09-20T01:17:09;1.38;;;0.40;;
13108;SDS011;6620;53.734;11.510;2022-09-20T01:22:23;0.15;;;0.10;;
13108;SDS011;6620;53.734;11.510;2022-09-20T01:30:02;3.50;;;0.20;;
13108;SDS011;6620;53.734;11.510;2022-09-20T01:32:33;1.00;;;0.10;;
13108;SDS011;6620;53.734;11.510;2022-09-20T01:37:34;1.43;;;0.10;;
13108;SDS011;6620;53.734;11.510;2022-09-20T01:42:37;0.30;;;0.20;;
13108;SDS011;6620;53.734;11.510;2022-09-20T01:45:21;0.63;;;0.10;;
13108;SDS011;6620;53.734;11.510;2022-09-20T01:47:57;0.85;;;0.20;;
13108;SDS011;6620;53.734;11.510;2022-09-20T01:55:43;0.85;;;0.10;;
13108;SDS011;6620;53.734;11.510;2022-09-20T02:18:55;0.17;;;0.10;;
13108;SDS011;6620;53.734;11.510;2022-09-20T02:21:33;0.32;;;0.20;;
13108;SDS011;6620;53.734;11.510;2022-09-20T02:29:31;1.13;;;0.17;;
13108;SDS011;6620;53.734;11.510;2022-09-20T02:32:05;0.68;;;0.10;;
13108;SDS011;6620;53.734;11.510;2022-09-20T02:34:40;0.55;;;0.10;;
13108;SDS011;6620;53.734;11.510;2022-09-20T02:42:12;0.52;;;0.20;;
13108;SDS011;6620;53.734;11.510;2022-09-20T02:44:52;0.22;;;0.20;;
13108;SDS011;6620;53.734;11.510;2022-09-20T02:49:52;0.52;;;0.15;;
13108;SDS011;6620;53.734;11.510;2022-09-20T03:00:45;0.57;;;0.10;;
13108;SDS011;6620;53.734;11.510;2022-09-20T03:03:20;0.52;;;0.20;;
13108;SDS011;6620;53.734;11.510;2022-09-20T03:05:56;0.63;;;0.13;;
13108;SDS011;6620;53.734;11.510;2022-09-20T03:14:03;0.40;;;0.20;;
13108;SDS011;6620;53.734;11.510;2022-09-20T03:16:50;1.92;;;0.20;;
13108;SDS011;6620;53.734;11.510;2022-09-20T03:32:38;0.37;;;0.10;;
13108;SDS011;6620;53.734;11.510;2022-09-20T03:42:51;2.22;;;0.20;;
13108;SDS011;6620;53.734;11.510;2022-09-20T03:50:46;4.32;;;0.20;;
13108;SDS011;6620;53.734;11.510;2022-09-20T03:53:19;0.98;;;0.10;;
13108;SDS011;6620;53.734;11.510;2022-09-20T04:03:44;1.95;;;0.25;;
13108;SDS011;6620;53.734;11.510;2022-09-20T04:06:20;0.28;;;0.20;;
13108;SDS011;6620;53.734;11.510;2022-09-20T04:09:08;0.28;;;0.17;;
13108;SDS011;6620;53.734;11.510;2022-09-20T04:14:21;0.80;;;0.20;;
13108;SDS011;6620;53.734;11.510;2022-09-20T04:19:29;3.63;;;0.20;;
13108;SDS011;6620;53.734;11.510;2022-09-20T04:21:59;8.80;;;6.88;;
13108;SDS011;6620;53.734;11.510;2022-09-20T04:24:37;11.77;;;6.30;;
13108;SDS011;6620;53.734;11.510;2022-09-20T04:27:14;6.25;;;3.83;;
13108;SDS011;6620;53.734;11.510;2022-09-20T04:32:20;2.72;;;2.33;;
13108;SDS011;6620;53.734;11.510;2022-09-20T04:34:56;1.52;;;1.42;;
13108;SDS011;6620;53.734;11.510;2022-09-20T04:37:42;3.42;;;1.30;;
13108;SDS011;6620;53.734;11.510;2022-09-20T04:42:44;2.17;;;0.77;;
13108;SDS011;6620;53.734;11.510;2022-09-20T04:45:20;0.80;;;0.80;;
13108;SDS011;6620;53.734;11.510;2022-09-20T04:50:54;0.90;;;0.60;;
13108;SDS011;6620;53.734;11.510;2022-09-20T04:55:58;0.82;;;0.30;;
13108;SDS011;6620;53.734;11.510;2022-09-20T04:58:31;2.97;;;0.47;;
13108;SDS011;6620;53.734;11.510;2022-09-20T05:17:05;1.48;;;0.30;;
13108;SDS011;6620;53.734;11.510;2022-09-20T05:24:57;4.18;;;0.30;;
13108;SDS011;6620;53.734;11.510;2022-09-20T05:32:59;0.30;;;0.28;;
13108;SDS011;6620;53.734;11.510;2022-09-20T05:38:04;0.75;;;0.20;;
13108;SDS011;6620;53.734;11.510;2022-09-20T05:40:49;1.83;;;0.57;;
13108;SDS011;6620;53.734;11.510;2022-09-20T05:43:28;0.20;;;0.20;;
13108;SDS011;6620;53.734;11.510;2022-09-20T05:45:57;0.77;;;0.20;;
13108;SDS011;6620;53.734;11.510;2022-09-20T05:51:00;0.40;;;0.20;;
13108;SDS011;6620;53.734;11.510;2022-09-20T05:53:35;1.30;;;0.25;;
13108;SDS011;6620;53.734;11.510;2022-09-20T05:58:52;0.60;;;0.55;;
13108;SDS011;6620;53.734;11.510;2022-09-20T06:03:48;1.00;;;0.35;;
13108;SDS011;6620;53.734;11.510;2022-09-20T06:07:21;0.47;;;0.28;;
13108;SDS011;6620;53.734;11.510;2022-09-20T06:22:28;1.00;;;0.43;;
13108;SDS011;6620;53.734;11.510;2022-09-20T06:27:40;2.28;;;0.52;;
13108;SDS011;6620;53.734;11.510;2022-09-20T06:30:07;1.35;;;0.50;;
13108;SDS011;6620;53.734;11.510;2022-09-20T06:32:51;0.90;;;0.68;;
13108;SDS011;6620;53.734;11.510;2022-09-20T06:35:16;5.15;;;0.40;;
13108;SDS011;6620;53.734;11.510;2022-09-20T06:37:43;1.50;;;0.32;;
13108;SDS011;6620;53.734;11.510;2022-09-20T06:43:16;1.27;;;0.35;;
13108;SDS011;6620;53.734;11.510;2022-09-20T06:45:42;1.45;;;0.40;;
13108;SDS011;6620;53.734;11.510;2022-09-20T06:48:08;1.08;;;0.45;;
13108;SDS011;6620;53.734;11.510;2022-09-20T06:50:37;1.45;;;0.68;;
13108;SDS011;6620;53.734;11.510;2022-09-20T06:53:02;1.13;;;0.55;;
13108;SDS011;6620;53.734;11.510;2022-09-20T06:55:29;1.40;;;0.60;;
13108;SDS011;6620;53.734;11.510;2022-09-20T06:57:55;5.63;;;2.45;;
13108;SDS011;6620;53.734;11.510;2022-09-20T07:00:20;4.72;;;0.63;;
13108;SDS011;6620;53.734;11.510;2022-09-20T07:02:45;2.17;;;0.50;;
13108;SDS011;6620;53.734;11.510;2022-09-20T07:05:14;2.67;;;0.40;;
13108;SDS011;6620;53.734;11.510;2022-09-20T07:07:39;1.83;;;0.30;;
13108;SDS011;6620;53.734;11.510;2022-09-20T07:10:05;2.72;;;0.60;;
13108;SDS011;6620;53.734;11.510;2022-09-20T07:12:30;1.70;;;0.30;;
13108;SDS011;6620;53.734;11.510;2022-09-20T07:14:58;0.93;;;0.43;;
13108;SDS011;6620;53.734;11.510;2022-09-20T07:17:23;2.75;;;0.50;;
13108;SDS011;6620;53.734;11.510;2022-09-20T07:19:49;0.60;;;0.55;;
13108;SDS011;6620;53.734;11.510;2022-09-20T07:22:15;1.75;;;0.30;;
13108;SDS011;6620;53.734;11.510;2022-09-20T07:24:40;4.93;;;0.60;;
13108;SDS011;6620;53.734;11.510;2022-09-20T07:27:06;3.30;;;0.68;;
13108;SDS011;6620;53.734;11.510;2022-09-20T07:29:31;0.40;;;0.40;;
13108;SDS011;6620;53.734;11.510;2022-09-20T07:31:59;2.35;;;0.52;;
13108;SDS011;6620;53.734;11.510;2022-09-20T07:34:24;1.58;;;0.88;;
13108;SDS011;6620;53.734;11.510;2022-09-20T07:36:49;0.82;;;0.40;;
13108;SDS011;6620;53.734;11.510;2022-09-20T07:39:18;3.42;;;1.38;;
13108;SDS011;6620;53.734;11.510;2022-09-20T07:41:43;1.60;;;0.45;;
13108;SDS011;6620;53.734;11.510;2022-09-20T07:44:14;1.15;;;0.30;;
13108;SDS011;6620;53.734;11.510;2022-09-20T07:46:49;1.08;;;0.30;;
13108;SDS011;6620;53.734;11.510;2022-09-20T07:49:14;1.30;;;0.45;;
13108;SDS011;6620;53.734;11.510;2022-09-20T07:51:39;0.52;;;0.40;;
13108;SDS011;6620;53.734;11.510;2022-09-20T07:54:05;0.57;;;0.30;;
13108;SDS011;6620;53.734;11.510;2022-09-20T07:56:30;0.80;;;0.30;;
13108;SDS011;6620;53.734;11.510;2022-09-20T07:58:55;0.75;;;0.28;;
13108;SDS011;6620;53.734;11.510;2022-09-20T08:01:21;0.30;;;0.20;;
13108;SDS011;6620;53.734;11.510;2022-09-20T08:03:46;1.80;;;0.32;;
13108;SDS011;6620;53.734;11.510;2022-09-20T08:06:12;0.52;;;0.20;;
13108;SDS011;6620;53.734;11.510;2022-09-20T08:08:40;2.28;;;0.30;;
13108;SDS011;6620;53.734;11.510;2022-09-20T08:13:34;2.20;;;0.43;;
13108;SDS011;6620;53.734;11.510;2022-09-20T08:16:01;1.77;;;0.20;;
13108;SDS011;6620;53.734;11.510;2022-09-20T08:18:26;0.98;;;0.20;;
13108;SDS011;6620;53.734;11.510;2022-09-20T08:20:51;2.50;;;0.30;;
13108;SDS011;6620;53.734;11.510;2022-09-20T08:23:17;1.52;;;0.30;;
13108;SDS011;6620;53.734;11.510;2022-09-20T08:25:42;0.90;;;0.30;;
13108;SDS011;6620;53.734;11.510;2022-09-20T08:28:07;0.83;;;0.20;;
13108;SDS011;6620;53.734;11.510;2022-09-20T08:30:32;1.80;;;0.20;;
13108;SDS011;6620;53.734;11.510;2022-09-20T08:32:57;1.00;;;0.20;;
13108;SDS011;6620;53.734;11.510;2022-09-20T08:35:23;2.17;;;0.20;;
13108;SDS011;6620;53.734;11.510;2022-09-20T08:37:49;4.57;;;0.30;;
13108;SDS011;6620;53.734;11.510;2022-09-20T08:40:18;3.20;;;0.47;;
13108;SDS011;6620;53.734;11.510;2022-09-20T08:42:45;3.92;;;0.47;;
13108;SDS011;6620;53.734;11.510;2022-09-20T08:45:32;3.17;;;0.30;;
13108;SDS011;6620;53.734;11.510;2022-09-20T08:47:57;3.67;;;0.38;;
13108;SDS011;6620;53.734;11.510;2022-09-20T08:50:23;6.75;;;0.30;;
13108;SDS011;6620;53.734;11.510;2022-09-20T08:52:49;2.05;;;0.20;;
13108;SDS011;6620;53.734;11.510;2022-09-20T08:55:21;1.42;;;0.20;;
13108;SDS011;6620;53.734;11.510;2022-09-20T08:57:51;2.72;;;0.20;;
13108;SDS011;6620;53.734;11.510;2022-09-20T09:00:18;0.85;;;0.43;;
13108;SDS011;6620;53.734;11.510;2022-09-20T09:02:43;3.55;;;0.50;;
13108;SDS011;6620;53.734;11.510;2022-09-20T09:05:19;1.25;;;0.10;;
13108;SDS011;6620;53.734;11.510;2022-09-20T09:07:47;2.95;;;0.20;;
13108;SDS011;6620;53.734;11.510;2022-09-20T09:10:12;3.10;;;0.37;;
13108;SDS011;6620;53.734;11.510;2022-09-20T09:12:37;2.03;;;0.20;;
13108;SDS011;6620;53.734;11.510;2022-09-20T09:15:19;5.22;;;0.40;;
13108;SDS011;6620;53.734;11.510;2022-09-20T09:17:45;1.42;;;0.10;;
13108;SDS011;6620;53.734;11.510;2022-09-20T09:20:17;2.50;;;0.20;;
13108;SDS011;6620;53.734;11.510;2022-09-20T09:22:45;1.55;;;0.20;;
13108;SDS011;6620;53.734;11.510;2022-09-20T09:27:49;1.53;;;0.23;;
13108;SDS011;6620;53.734;11.510;2022-09-20T09:30:22;1.35;;;0.10;;
13108;SDS011;6620;53.734;11.510;2022-09-20T09:32:48;0.65;;;0.20;;
13108;SDS011;6620;53.734;11.510;2022-09-20T09:35:29;0.65;;;0.20;;
13108;SDS011;6620;53.734;11.510;2022-09-20T09:37:57;2.05;;;0.10;;
13108;SDS011;6620;53.734;11.510;2022-09-20T09:40:23;1.23;;;0.20;;
13108;SDS011;6620;53.734;11.510;2022-09-20T09:47:51;1.00;;;0.10;;
13108;SDS011;6620;53.734;11.510;2022-09-20T09:50:24;1.08;;;0.20;;
13108;SDS011;6620;53.734;11.510;2022-09-20T09:53:01;2.50;;;0.13;;
13108;SDS011;6620;53.734;11.510;2022-09-20T09:55:29;0.70;;;0.13;;
13108;SDS011;6620;53.734;11.510;2022-09-20T09:58:00;3.15;;;0.22;;
13108;SDS011;6620;53.734;11.510;2022-09-20T10:00:27;1.33;;;0.13;;
13108;SDS011;6620;53.734;11.510;2022-09-20T10:12:58;2.57;;;0.23;;
13108;SDS011;6620;53.734;11.510;2022-09-20T10:18:12;4.65;;;0.32;;
13108;SDS011;6620;53.734;11.510;2022-09-20T10:23:22;2.95;;;0.22;;
13108;SDS011;6620;53.734;11.510;2022-09-20T10:33:43;1.33;;;0.20;;
13108;SDS011;6620;53.734;11.510;2022-09-20T10:38:42;1.95;;;0.17;;
13108;SDS011;6620;53.734;11.510;2022-09-20T10:41:12;1.58;;;0.10;;
13108;SDS011;6620;53.734;11.510;2022-09-20T10:44:00;2.25;;;0.20;;
13108;SDS011;6620;53.734;11.510;2022-09-20T10:49:03;1.00;;;0.43;;
13108;SDS011;6620;53.734;11.510;2022-09-20T10:51:40;0.93;;;0.10;;
13108;SDS011;6620;53.734;11.510;2022-09-20T10:56:45;0.95;;;0.00;;
13108;SDS011;6620;53.734;11.510;2022-09-20T11:09:33;1.17;;;0.52;;
13108;SDS011;6620;53.734;11.510;2022-09-20T11:17:42;0.93;;;0.20;;
13108;SDS011;6620;53.734;11.510;2022-09-20T11:25:03;3.10;;;0.20;;
13108;SDS011;6620;53.734;11.510;2022-09-20T11:27:43;2.42;;;0.00;;
13108;SDS011;6620;53.734;11.510;2022-09-20T11:30:19;0.65;;;0.20;;
13108;SDS011;6620;53.734;11.510;2022-09-20T11:32:55;2.30;;;0.43;;
13108;SDS011;6620;53.734;11.510;2022-09-20T11:35:45;2.00;;;0.22;;
13108;SDS011;6620;53.734;11.510;2022-09-20T11:38:20;1.63;;;0.10;;
13108;SDS011;6620;53.734;11.510;2022-09-20T11:40:56;0.75;;;0.15;;
13108;SDS011;6620;53.734;11.510;2022-09-20T11:43:21;1.70;;;0.10;;
13108;SDS011;6620;53.734;11.510;2022-09-20T11:45:54;3.35;;;0.20;;
13108;SDS011;6620;53.734;11.510;2022-09-20T11:48:25;0.63;;;0.10;;
13108;SDS011;6620;53.734;11.510;2022-09-20T11:58:42;1.13;;;0.20;;
13108;SDS011;6620;53.734;11.510;2022-09-20T12:01:11;0.10;;;0.10;;
13108;SDS011;6620;53.734;11.510;2022-09-20T12:03:37;2.35;;;0.15;;
13108;SDS011;6620;53.734;11.510;2022-09-20T12:06:16;0.73;;;0.10;;
13108;SDS011;6620;53.734;11.510;2022-09-20T12:08:44;2.25;;;0.10;;
13108;SDS011;6620;53.734;11.510;2022-09-20T12:11:13;0.28;;;0.10;;
13108;SDS011;6620;53.734;11.510;2022-09-20T12:13:39;1.55;;;0.28;;
13108;SDS011;6620;53.734;11.510;2022-09-20T12:19:27;2.50;;;0.15;;
13108;SDS011;6620;53.734;11.510;2022-09-20T12:21:16;0.68;;;0.10;;
13108;SDS011;6620;53.734;11.510;2022-09-20T12:23:42;1.65;;;0.10;;
13108;SDS011;6620;53.734;11.510;2022-09-20T12:28:40;1.95;;;0.10;;
13108;SDS011;6620;53.734;11.510;2022-09-20T12:31:36;3.83;;;0.30;;
13108;SDS011;6620;53.734;11.510;2022-09-20T12:36:36;1.05;;;0.20;;
13108;SDS011;6620;53.734;11.510;2022-09-20T12:39:13;0.68;;;0.10;;
13108;SDS011;6620;53.734;11.510;2022-09-20T12:41:52;0.98;;;0.00;;
13108;SDS011;6620;53.734;11.510;2022-09-20T12:47:00;3.22;;;0.32;;
13108;SDS011;6620;53.734;11.510;2022-09-20T12:49:30;0.15;;;0.00;;
13108;SDS011;6620;53.734;11.510;2022-09-20T13:00:42;1.20;;;0.10;;
13108;SDS011;6620;53.734;11.510;2022-09-20T13:21:28;0.20;;;0.00;;
13108;SDS011;6620;53.734;11.510;2022-09-20T13:23:53;1.27;;;0.40;;
13108;SDS011;6620;53.734;11.510;2022-09-20T13:26:29;0.63;;;0.00;;
13108;SDS011;6620;53.734;11.510;2022-09-20T13:28:56;0.32;;;0.00;;
13108;SDS011;6620;53.734;11.510;2022-09-20T13:31:27;1.55;;;0.00;;
13108;SDS011;6620;53.734;11.510;2022-09-20T13:33:52;0.45;;;0.00;;
13108;SDS011;6620;53.734;11.510;2022-09-20T13:36:23;0.50;;;0.00;;
13108;SDS011;6620;53.734;11.510;2022-09-20T13:38:49;0.10;;;0.00;;
13108;SDS011;6620;53.734;11.510;2022-09-20T13:41:15;0.10;;;0.10;;
13108;SDS011;6620;53.734;11.510;2022-09-20T13:43:41;0.52;;;0.00;;
13108;SDS011;6620;53.734;11.510;2022-09-20T13:48:36;1.67;;;0.00;;
13108;SDS011;6620;53.734;11.510;2022-09-20T13:51:01;0.25;;;0.00;;
13108;SDS011;6620;53.734;11.510;2022-09-20T13:53:27;0.03;;;0.00;;
13108;SDS011;6620;53.734;11.510;2022-09-20T13:55:53;0.47;;;0.00;;
13108;SDS011;6620;53.734;11.510;2022-09-20T14:00:51;0.10;;;0.10;;
13108;SDS011;6620;53.734;11.510;2022-09-20T14:03:18;0.00;;;0.00;;
13108;SDS011;6620;53.734;11.510;2022-09-20T14:05:47;0.85;;;0.00;;
13108;SDS011;6620;53.734;11.510;2022-09-20T14:08:23;0.95;;;0.10;;
13108;SDS011;6620;53.734;11.510;2022-09-20T14:11:02;0.85;;;0.10;;
13108;SDS011;6620;53.734;11.510;2022-09-20T14:13:34;1.75;;;0.68;;
13108;SDS011;6620;53.734;11.510;2022-09-20T14:16:00;0.20;;;0.05;;
13108;SDS011;6620;53.734;11.510;2022-09-20T14:18:25;0.20;;;0.00;;
13108;SDS011;6620;53.734;11.510;2022-09-20T14:20:51;0.47;;;0.00;;
13108;SDS011;6620;53.734;11.510;2022-09-20T14:23:23;0.00;;;0.00;;
13108;SDS011;6620;53.734;11.510;2022-09-20T14:26:05;0.28;;;0.00;;
13108;SDS011;6620;53.734;11.510;2022-09-20T14:28:30;0.22;;;0.10;;
13108;SDS011;6620;53.734;11.510;2022-09-20T14:31:02;0.57;;;0.00;;
13108;SDS011;6620;53.734;11.510;2022-09-20T14:33:29;1.10;;;0.03;;
13108;SDS011;6620;53.734;11.510;2022-09-20T14:35:54;1.90;;;0.10;;
13108;SDS011;6620;53.734;11.510;2022-09-20T14:38:23;1.45;;;0.10;;
13108;SDS011;6620;53.734;11.510;2022-09-20T14:40:49;0.70;;;0.00;;
13108;SDS011;6620;53.734;11.510;2022-09-20T14:43:37;1.05;;;0.10;;
13108;SDS011;6620;53.734;11.510;2022-09-20T14:46:02;0.22;;;0.08;;
13108;SDS011;6620;53.734;11.510;2022-09-20T14:51:09;0.68;;;0.20;;
13108;SDS011;6620;53.734;11.510;2022-09-20T14:53:35;0.65;;;0.00;;
13108;SDS011;6620;53.734;11.510;2022-09-20T14:58:30;1.48;;;0.20;;
13108;SDS011;6620;53.734;11.510;2022-09-20T15:03:57;0.65;;;0.10;;
13108;SDS011;6620;53.734;11.510;2022-09-20T15:06:22;0.30;;;0.10;;
13108;SDS011;6620;53.734;11.510;2022-09-20T15:08:48;2.58;;;0.10;;
13108;SDS011;6620;53.734;11.510;2022-09-20T15:11:14;0.93;;;0.00;;
13108;SDS011;6620;53.734;11.510;2022-09-20T15:13:39;0.68;;;0.00;;
13108;SDS011;6620;53.734;11.510;2022-09-20T15:16:04;4.72;;;0.10;;
13108;SDS011;6620;53.734;11.510;2022-09-20T15:18:30;1.35;;;0.08;;
13108;SDS011;6620;53.734;11.510;2022-09-20T15:20:58;0.90;;;0.10;;
13108;SDS011;6620;53.734;11.510;2022-09-20T15:23:24;2.28;;;0.00;;
13108;SDS011;6620;53.734;11.510;2022-09-20T15:25:49;2.13;;;0.30;;
13108;SDS011;6620;53.734;11.510;2022-09-20T15:28:16;0.77;;;0.10;;
13108;SDS011;6620;53.734;11.510;2022-09-20T15:30:45;0.55;;;0.10;;
13108;SDS011;6620;53.734;11.510;2022-09-20T15:33:11;3.97;;;0.10;;
13108;SDS011;6620;53.734;11.510;2022-09-20T15:35:40;1.60;;;0.20;;
13108;SDS011;6620;53.734;11.510;2022-09-20T15:38:05;0.45;;;0.20;;
13108;SDS011;6620;53.734;11.510;2022-09-20T15:40:33;5.03;;;0.20;;
13108;SDS011;6620;53.734;11.510;2022-09-20T15:42:58;1.63;;;0.20;;
13108;SDS011;6620;53.734;11.510;2022-09-20T15:45:24;3.33;;;0.17;;
13108;SDS011;6620;53.734;11.510;2022-09-20T15:47:50;2.38;;;0.10;;
13108;SDS011;6620;53.734;11.510;2022-09-20T15:50:19;0.73;;;0.17;;
13108;SDS011;6620;53.734;11.510;2022-09-20T15:52:47;3.42;;;0.10;;
13108;SDS011;6620;53.734;11.510;2022-09-20T15:55:15;1.75;;;0.43;;
13108;SDS011;6620;53.734;11.510;2022-09-20T15:57:40;2.25;;;0.45;;
13108;SDS011;6620;53.734;11.510;2022-09-20T16:00:06;2.90;;;0.10;;
13108;SDS011;6620;53.734;11.510;2022-09-20T16:02:32;0.95;;;0.10;;
13108;SDS011;6620;53.734;11.510;2022-09-20T16:04:57;1.17;;;0.17;;
13108;SDS011;6620;53.734;11.510;2022-09-20T16:07:23;4.90;;;0.30;;
13108;SDS011;6620;53.734;11.510;2022-09-20T16:09:52;3.60;;;0.28;;
13108;SDS011;6620;53.734;11.510;2022-09-20T16:12:19;1.95;;;0.20;;
13108;SDS011;6620;53.734;11.510;2022-09-20T16:14:44;2.40;;;0.20;;
13108;SDS011;6620;53.734;11.510;2022-09-20T16:17:14;2.55;;;0.20;;
13108;SDS011;6620;53.734;11.510;2022-09-20T16:20:18;2.70;;;0.20;;
13108;SDS011;6620;53.734;11.510;2022-09-20T16:22:43;1.75;;;0.17;;
13108;SDS011;6620;53.734;11.510;2022-09-20T16:25:09;2.13;;;0.20;;
13108;SDS011;6620;53.734;11.510;2022-09-20T16:27:34;3.67;;;0.30;;
13108;SDS011;6620;53.734;11.510;2022-09-20T16:30:00;3.05;;;0.70;;
13108;SDS011;6620;53.734;11.510;2022-09-20T16:32:26;1.83;;;0.40;;
13108;SDS011;6620;53.734;11.510;2022-09-20T16:34:52;4.65;;;0.63;;
13108;SDS011;6620;53.734;11.510;2022-09-20T16:37:19;2.25;;;0.93;;
13108;SDS011;6620;53.734;11.510;2022-09-20T16:39:48;1.75;;;0.68;;
13108;SDS011;6620;53.734;11.510;2022-09-20T16:42:16;2.13;;;1.20;;
13108;SDS011;6620;53.734;11.510;2022-09-20T16:44:41;1.90;;;0.73;;
13108;SDS011;6620;53.734;11.510;2022-09-20T16:47:07;4.50;;;0.90;;
13108;SDS011;6620;53.734;11.510;2022-09-20T16:49:34;3.42;;;0.90;;
13108;SDS011;6620;53.734;11.510;2022-09-20T16:52:00;3.72;;;0.88;;
13108;SDS011;6620;53.734;11.510;2022-09-20T16:54:25;2.35;;;0.80;;
13108;SDS011;6620;53.734;11.510;2022-09-20T16:56:51;4.50;;;1.30;;
13108;SDS011;6620;53.734;11.510;2022-09-20T16:59:17;1.67;;;0.63;;
13108;SDS011;6620;53.734;11.510;2022-09-20T17:01:44;1.75;;;0.90;;
13108;SDS011;6620;53.734;11.510;2022-09-20T17:04:10;3.08;;;0.90;;
13108;SDS011;6620;53.734;11.510;2022-09-20T17:06:38;3.03;;;0.50;;
13108;SDS011;6620;53.734;11.510;2022-09-20T17:09:04;2.33;;;0.35;;
13108;SDS011;6620;53.734;11.510;2022-09-20T17:11:30;2.25;;;0.38;;
13108;SDS011;6620;53.734;11.510;2022-09-20T17:13:56;1.48;;;0.40;;
13108;SDS011;6620;53.734;11.510;2022-09-20T17:16:28;2.97;;;0.30;;
13108;SDS011;6620;53.734;11.510;2022-09-20T17:19:03;2.42;;;0.20;;
13108;SDS011;6620;53.734;11.510;2022-09-20T17:21:32;3.30;;;0.40;;
13108;SDS011;6620;53.734;11.510;2022-09-20T17:24:00;2.70;;;0.35;;
13108;SDS011;6620;53.734;11.510;2022-09-20T17:28:51;1.67;;;0.20;;
13108;SDS011;6620;53.734;11.510;2022-09-20T17:31:24;2.45;;;0.20;;
13108;SDS011;6620;53.734;11.510;2022-09-20T17:33:52;2.00;;;0.30;;
13108;SDS011;6620;53.734;11.510;2022-09-20T17:36:19;1.55;;;0.20;;
13108;SDS011;6620;53.734;11.510;2022-09-20T17:38:45;4.28;;;0.68;;
13108;SDS011;6620;53.734;11.510;2022-09-20T17:41:12;3.08;;;0.32;;
13108;SDS011;6620;53.734;11.510;2022-09-20T17:43:38;10.52;;;0.60;;
13108;SDS011;6620;53.734;11.510;2022-09-20T17:48:30;5.65;;;0.40;;
13108;SDS011;6620;53.734;11.510;2022-09-20T17:50:58;8.68;;;0.50;;
13108;SDS011;6620;53.734;11.510;2022-09-20T17:53:23;6.20;;;0.47;;
13108;SDS011;6620;53.734;11.510;2022-09-20T17:55:54;9.75;;;0.95;;
13108;SDS011;6620;53.734;11.510;2022-09-20T17:58:20;1.75;;;0.45;;
13108;SDS011;6620;53.734;11.510;2022-09-20T18:00:45;3.72;;;0.45;;
13108;SDS011;6620;53.734;11.510;2022-09-20T18:03:10;1.70;;;0.10;;
13108;SDS011;6620;53.734;11.510;2022-09-20T18:05:36;4.60;;;0.20;;
13108;SDS011;6620;53.734;11.510;2022-09-20T18:08:01;6.67;;;0.40;;
13108;SDS011;6620;53.734;11.510;2022-09-20T18:10:27;2.53;;;0.25;;
13108;SDS011;6620;53.734;11.510;2022-09-20T18:12:52;5.80;;;0.30;;
13108;SDS011;6620;53.734;11.510;2022-09-20T18:15:18;2.60;;;0.20;;
13108;SDS011;6620;53.734;11.510;2022-09-20T18:17:43;5.40;;;0.20;;
13108;SDS011;6620;53.734;11.510;2022-09-20T18:20:08;2.33;;;0.30;;
13108;SDS011;6620;53.734;11.510;2022-09-20T18:22:34;3.50;;;0.40;;
13108;SDS011;6620;53.734;11.510;2022-09-20T18:24:59;1.02;;;0.40;;
13108;SDS011;6620;53.734;11.510;2022-09-20T18:27:25;5.18;;;0.30;;
13108;SDS011;6620;53.734;11.510;2022-09-20T18:29:50;4.00;;;0.40;;
13108;SDS011;6620;53.734;11.510;2022-09-20T18:32:15;0.37;;;0.20;;
13108;SDS011;6620;53.734;11.510;2022-09-20T18:34:41;2.45;;;0.20;;
13108;SDS011;6620;53.734;11.510;2022-09-20T18:37:06;2.90;;;0.20;;
13108;SDS011;6620;53.734;11.510;2022-09-20T18:39:32;2.20;;;0.20;;
13108;SDS011;6620;53.734;11.510;2022-09-20T18:41:58;0.88;;;0.20;;
13108;SDS011;6620;53.734;11.510;2022-09-20T18:44:24;5.82;;;0.30;;
13108;SDS011;6620;53.734;11.510;2022-09-20T18:46:50;2.05;;;0.20;;
13108;SDS011;6620;53.734;11.510;2022-09-20T18:49:18;6.13;;;0.45;;
13108;SDS011;6620;53.734;11.510;2022-09-20T18:51:45;3.35;;;0.10;;
13108;SDS011;6620;53.734;11.510;2022-09-20T18:54:12;1.25;;;0.20;;
13108;SDS011;6620;53.734;11.510;2022-09-20T18:56:38;4.32;;;0.40;;
13108;SDS011;6620;53.734;11.510;2022-09-20T18:59:04;9.48;;;0.30;;
13108;SDS011;6620;53.734;11.510;2022-09-20T19:06:31;1.52;;;0.35;;
13108;SDS011;6620;53.734;11.510;2022-09-20T19:09:05;1.13;;;0.28;;
13108;SDS011;6620;53.734;11.510;2022-09-20T19:11:34;3.13;;;0.25;;
13108;SDS011;6620;53.734;11.510;2022-09-20T19:14:02;2.17;;;0.20;;
13108;SDS011;6620;53.734;11.510;2022-09-20T19:16:32;1.90;;;0.20;;
13108;SDS011;6620;53.734;11.510;2022-09-20T19:26:50;2.42;;;0.35;;
13108;SDS011;6620;53.734;11.510;2022-09-20T19:31:41;2.95;;;0.40;;
13108;SDS011;6620;53.734;11.510;2022-09-20T19:34:10;1.83;;;0.30;;
13108;SDS011;6620;53.734;11.510;2022-09-20T19:39:16;2.40;;;0.40;;
13108;SDS011;6620;53.734;11.510;2022-09-20T19:41:48;1.42;;;0.40;;
13108;SDS011;6620;53.734;11.510;2022-09-20T19:46:51;3.40;;;0.38;;
13108;SDS011;6620;53.734;11.510;2022-09-20T19:51:45;4.40;;;0.80;;
13108;SDS011;6620;53.734;11.510;2022-09-20T19:54:12;2.83;;;0.50;;
13108;SDS011;6620;53.734;11.510;2022-09-20T19:56:42;2.17;;;0.40;;
13108;SDS011;6620;53.734;11.510;2022-09-20T19:59:09;3.45;;;0.47;;
13108;SDS011;6620;53.734;11.510;2022-09-20T20:01:36;10.52;;;0.70;;
13108;SDS011;6620;53.734;11.510;2022-09-20T20:04:01;4.03;;;0.68;;
13108;SDS011;6620;53.734;11.510;2022-09-20T20:06:41;9.85;;;0.70;;
13108;SDS011;6620;53.734;11.510;2022-09-20T20:09:24;14.75;;;1.02;;
13108;SDS011;6620;53.734;11.510;2022-09-20T20:14:25;21.92;;;2.03;;
13108;SDS011;6620;53.734;11.510;2022-09-20T20:25:17;7.75;;;0.65;;
13108;SDS011;6620;53.734;11.510;2022-09-20T20:27:44;3.25;;;0.40;;
13108;SDS011;6620;53.734;11.510;2022-09-20T20:30:10;12.63;;;0.70;;
13108;SDS011;6620;53.734;11.510;2022-09-20T20:32:36;8.77;;;0.40;;
13108;SDS011;6620;53.734;11.510;2022-09-20T20:35:01;8.43;;;0.60;;